Time;durP1;ratioP1;P1;durP2;ratioP2;P2;SDS_P1;SDS_P2;PMS_P1;PMS_P2;Temp;Humidity;BMP_temperature;BMP_pressure;BME280_temperature;BME280_humidity;BME280_pressure;Samples;Min_cycle;Max_cycle;Signal;HPM_P1;HPM_P2
2023/05/15 00:01:24;;;;;;;6.93;5.97;;;9.70;99.90;;;;;;5073455;28;20219;-78
2023/05/15 00:03:53;;;;;;;7.20;6.43;;;9.70;99.90;;;;;;5073149;28;20306;-78
2023/05/15 00:06:22;;;;;;;7.67;6.93;;;9.70;99.90;;;;;;5073034;28;20273;-77
2023/05/15 00:08:50;;;;;;;8.73;7.43;;;9.70;99.90;;;;;;5072707;28;20211;-79
2023/05/15 00:11:20;;;;;;;7.93;6.93;;;9.70;99.90;;;;;;5072908;28;20589;-77
2023/05/15 00:13:48;;;;;;;8.87;7.27;;;9.70;99.90;;;;;;5072490;28;20302;-78
2023/05/15 00:16:16;;;;;;;8.83;7.67;;;9.60;99.90;;;;;;5074177;28;20208;-77
2023/05/15 00:18:44;;;;;;;9.80;7.90;;;9.60;99.90;;;;;;5074621;28;20218;-79
2023/05/15 00:21:13;;;;;;;9.93;7.43;;;9.60;99.90;;;;;;5085057;28;20222;-78
2023/05/15 00:23:41;;;;;;;8.00;7.20;;;9.60;99.90;;;;;;5092453;28;20659;-76
2023/05/15 00:26:09;;;;;;;9.27;7.80;;;9.60;99.90;;;;;;5084679;28;20231;-78
2023/05/15 00:28:38;;;;;;;10.10;7.70;;;9.60;99.90;;;;;;5084847;28;20199;-77
2023/05/15 00:31:07;;;;;;;8.60;7.70;;;9.60;99.90;;;;;;5093042;28;20233;-78
2023/05/15 00:33:35;;;;;;;9.13;7.90;;;9.60;99.90;;;;;;5092824;28;20207;-78
2023/05/15 00:36:03;;;;;;;9.17;7.90;;;9.70;99.90;;;;;;5072767;28;20203;-76
2023/05/15 00:38:32;;;;;;;10.73;8.33;;;9.70;99.90;;;;;;5072777;28;20296;-77
2023/05/15 00:41:01;;;;;;;9.40;8.07;;;9.70;99.90;;;;;;5072644;28;20203;-77
2023/05/15 00:43:30;;;;;;;12.57;9.40;;;9.70;99.90;;;;;;5072267;28;20212;-78
2023/05/15 00:46:01;;;;;;;10.20;9.10;;;9.70;99.90;;;;;;5072397;28;20223;-78
2023/05/15 00:48:29;;;;;;;10.13;8.77;;;9.70;99.90;;;;;;5072413;28;20203;-77
2023/05/15 00:50:58;;;;;;;9.83;8.93;;;9.70;99.90;;;;;;5072531;28;20239;-78
2023/05/15 00:53:27;;;;;;;10.90;9.30;;;9.70;99.90;;;;;;5071820;28;20215;-79
2023/05/15 00:55:57;;;;;;;10.13;9.00;;;9.70;99.90;;;;;;5072690;28;20253;-78
2023/05/15 00:58:28;;;;;;;10.57;9.47;;;9.70;99.90;;;;;;5091682;28;20684;-78
2023/05/15 01:00:56;;;;;;;10.33;8.90;;;9.70;99.90;;;;;;5092557;28;20206;-78
2023/05/15 01:03:25;;;;;;;12.10;9.47;;;9.60;99.90;;;;;;5092149;28;20207;-78
2023/05/15 01:05:54;;;;;;;10.47;8.80;;;9.70;99.90;;;;;;5084362;28;20700;-78
2023/05/15 01:08:27;;;;;;;11.93;9.20;;;9.60;99.90;;;;;;5072222;28;20208;-76
2023/05/15 01:10:56;;;;;;;10.70;8.73;;;9.60;99.90;;;;;;5071628;28;20222;-77
2023/05/15 01:13:24;;;;;;;11.67;8.87;;;9.60;99.90;;;;;;5071778;28;20645;-78
2023/05/15 01:15:54;;;;;;;10.13;8.37;;;9.60;99.90;;;;;;5071996;28;20222;-77
2023/05/15 01:18:22;;;;;;;10.80;9.47;;;9.60;99.90;;;;;;5072347;28;20207;-78
2023/05/15 01:21:11;;;;;;;11.80;9.03;;;9.50;99.90;;;;;;5091870;28;20213;-77
2023/05/15 01:23:47;;;;;;;10.20;9.00;;;9.50;99.90;;;;;;5079315;28;20219;-76
2023/05/15 01:26:47;;;;;;;9.73;8.50;;;9.50;99.90;;;;;;5071970;28;20310;-76
2023/05/15 01:29:24;;;;;;;10.23;8.57;;;9.50;99.90;;;;;;5071978;28;20247;-77
2023/05/15 01:31:58;;;;;;;11.37;9.27;;;9.50;99.90;;;;;;5071574;28;20582;-76
2023/05/15 01:34:34;;;;;;;10.23;8.60;;;9.50;99.90;;;;;;5082593;28;20215;-79
2023/05/15 01:37:04;;;;;;;9.97;8.97;;;9.50;99.90;;;;;;5072315;28;20215;-78
2023/05/15 01:39:35;;;;;;;9.27;8.27;;;9.50;99.90;;;;;;5072504;28;20221;-78
2023/05/15 01:42:08;;;;;;;10.83;8.63;;;9.50;99.90;;;;;;5071332;28;20662;-77
2023/05/15 01:44:41;;;;;;;9.40;8.30;;;9.50;99.90;;;;;;5071502;28;20209;-78
2023/05/15 01:47:13;;;;;;;10.30;8.03;;;9.50;99.90;;;;;;5072211;28;20227;-77
2023/05/15 01:49:42;;;;;;;8.63;7.67;;;9.50;99.90;;;;;;5071647;28;20314;-77
2023/05/15 01:52:16;;;;;;;9.97;8.07;;;9.50;99.90;;;;;;5071543;28;20211;-79
2023/05/15 01:54:45;;;;;;;8.83;7.73;;;9.50;99.90;;;;;;5071436;28;20198;-78
2023/05/15 01:57:15;;;;;;;9.40;8.40;;;9.50;99.90;;;;;;5071732;28;20562;-78
2023/05/15 01:59:45;;;;;;;9.23;8.33;;;9.50;99.90;;;;;;5071559;28;20210;-78
2023/05/15 02:02:15;;;;;;;10.60;8.63;;;9.40;99.90;;;;;;5071382;28;20207;-78
2023/05/15 02:04:45;;;;;;;9.40;8.03;;;9.50;99.90;;;;;;5071567;28;20654;-79
2023/05/15 02:07:14;;;;;;;11.00;8.47;;;9.50;99.90;;;;;;5082851;28;20272;-77
2023/05/15 02:09:44;;;;;;;11.43;8.40;;;9.50;99.90;;;;;;5091915;28;20215;-78
2023/05/15 02:12:13;;;;;;;11.17;8.77;;;9.50;99.90;;;;;;5091017;28;20219;-78
2023/05/15 02:14:41;;;;;;;10.60;9.13;;;9.50;99.90;;;;;;5092239;28;20297;-79
2023/05/15 02:17:10;;;;;;;10.93;8.67;;;9.50;99.90;;;;;;5077104;28;20543;-78
2023/05/15 02:19:39;;;;;;;9.97;8.47;;;9.50;99.90;;;;;;5095473;28;20246;-78
2023/05/15 02:22:07;;;;;;;10.80;9.07;;;9.50;99.90;;;;;;5095169;28;20215;-78
2023/05/15 02:24:34;;;;;;;11.00;9.17;;;9.50;99.90;;;;;;5074548;28;20311;-78
2023/05/15 02:27:09;;;;;;;10.20;8.87;;;9.50;99.90;;;;;;5075392;28;20223;-80
2023/05/15 02:29:49;;;;;;;11.47;9.20;;;9.50;99.90;;;;;;5074703;28;20211;-77
2023/05/15 02:32:26;;;;;;;10.53;8.80;;;9.50;99.90;;;;;;5077805;28;20199;-77
2023/05/15 02:35:03;;;;;;;14.37;8.63;;;9.50;99.90;;;;;;5094746;28;20675;-78
2023/05/15 02:37:33;;;;;;;9.40;8.40;;;9.50;99.90;;;;;;5094982;28;20209;-74
2023/05/15 02:40:05;;;;;;;11.53;9.17;;;9.50;99.90;;;;;;5095120;28;20213;-74
2023/05/15 02:42:34;;;;;;;10.20;8.77;;;9.50;99.90;;;;;;5081269;28;20207;-76
2023/05/15 02:45:03;;;;;;;9.93;8.83;;;9.50;99.90;;;;;;5074384;28;20218;-75
2023/05/15 02:47:35;;;;;;;9.57;8.57;;;9.50;99.90;;;;;;5074645;28;20700;-75
2023/05/15 02:50:04;;;;;;;12.90;9.03;;;9.50;99.90;;;;;;5074760;28;20208;-76
2023/05/15 02:52:33;;;;;;;10.27;8.27;;;9.40;99.90;;;;;;5074608;28;20211;-74
2023/05/15 02:55:01;;;;;;;10.33;9.07;;;9.40;99.90;;;;;;5074824;28;20213;-75
2023/05/15 02:57:29;;;;;;;11.13;9.40;;;9.40;99.90;;;;;;5074837;28;20200;-77
2023/05/15 02:59:58;;;;;;;11.10;9.53;;;9.40;99.90;;;;;;5074831;28;20234;-76
2023/05/15 03:02:26;;;;;;;10.47;9.37;;;9.40;99.90;;;;;;5074430;28;20214;-75
2023/05/15 03:04:55;;;;;;;14.53;10.03;;;9.40;99.90;;;;;;5074360;28;20251;-77
2023/05/15 03:07:23;;;;;;;13.67;10.53;;;9.40;99.90;;;;;;5073864;28;20233;-76
2023/05/15 03:09:51;;;;;;;12.07;10.33;;;9.40;99.90;;;;;;5074205;28;20203;-75
2023/05/15 03:12:19;;;;;;;12.77;10.97;;;9.30;99.90;;;;;;5073696;28;20681;-75
2023/05/15 03:14:48;;;;;;;13.77;11.13;;;9.30;99.90;;;;;;5074117;28;20665;-78
2023/05/15 03:17:16;;;;;;;13.93;11.47;;;9.30;99.90;;;;;;5088561;28;20679;-75
2023/05/15 03:19:44;;;;;;;15.37;12.00;;;9.30;99.90;;;;;;5094758;28;20210;-81
2023/05/15 03:22:13;;;;;;;15.47;11.70;;;9.30;99.90;;;;;;5094415;28;20217;-76
2023/05/15 03:24:41;;;;;;;16.40;12.70;;;9.30;99.90;;;;;;5094369;28;20285;-78
2023/05/15 03:27:11;;;;;;;16.87;12.57;;;9.30;99.90;;;;;;5072792;28;20234;-76
2023/05/15 03:29:39;;;;;;;15.60;12.73;;;9.30;99.90;;;;;;5074151;28;20200;-80
2023/05/15 03:32:07;;;;;;;15.67;12.80;;;9.30;99.90;;;;;;5075677;28;20208;-80
2023/05/15 03:34:35;;;;;;;16.80;13.53;;;9.30;99.90;;;;;;5083280;28;20211;-76
2023/05/15 03:37:04;;;;;;;16.70;13.23;;;9.30;99.90;;;;;;5074114;28;20661;-74
2023/05/15 03:39:33;;;;;;;15.73;13.17;;;9.30;99.90;;;;;;5074071;28;20295;-74
2023/05/15 03:42:01;;;;;;;17.70;13.80;;;9.30;99.90;;;;;;5073949;28;20680;-77
2023/05/15 03:44:29;;;;;;;23.70;14.20;;;9.30;99.90;;;;;;5074205;28;20203;-75
2023/05/15 03:46:57;;;;;;;17.33;13.30;;;9.30;99.90;;;;;;5074962;28;20208;-74
2023/05/15 03:49:26;;;;;;;18.57;13.50;;;9.30;99.90;;;;;;5074544;28;20633;-74
2023/05/15 03:51:54;;;;;;;18.77;13.57;;;9.30;99.90;;;;;;5073141;28;20211;-77
2023/05/15 03:54:23;;;;;;;18.13;13.67;;;9.30;99.90;;;;;;5073690;28;20721;-76
2023/05/15 03:56:59;;;;;;;17.03;13.27;;;9.30;99.90;;;;;;5073472;28;20204;-76
2023/05/15 03:59:27;;;;;;;19.10;13.57;;;9.30;99.90;;;;;;5071828;28;20216;-76
2023/05/15 04:01:55;;;;;;;16.93;14.03;;;9.40;99.90;;;;;;5071626;28;20285;-76
2023/05/15 04:04:29;;;;;;;19.30;14.83;;;9.40;99.90;;;;;;5072534;28;20192;-75
2023/05/15 04:06:57;;;;;;;18.00;14.47;;;9.30;99.90;;;;;;5072395;28;20222;-75
2023/05/15 04:09:25;;;;;;;17.70;13.57;;;9.30;99.90;;;;;;5071955;28;20295;-75
2023/05/15 04:11:53;;;;;;;18.17;13.70;;;9.30;99.90;;;;;;5084193;28;20222;-75
2023/05/15 04:14:23;;;;;;;16.43;13.83;;;9.30;99.90;;;;;;5074740;28;20215;-75
2023/05/15 04:16:51;;;;;;;18.23;13.50;;;9.30;99.90;;;;;;5093630;28;20217;-75
2023/05/15 04:19:19;;;;;;;18.80;13.27;;;9.30;99.90;;;;;;5092751;28;20202;-74
2023/05/15 04:21:47;;;;;;;17.27;13.53;;;9.30;99.90;;;;;;5073374;28;20208;-77
2023/05/15 04:24:15;;;;;;;18.97;14.13;;;9.30;99.90;;;;;;5073013;28;20661;-76
2023/05/15 04:26:43;;;;;;;17.37;13.67;;;9.30;99.90;;;;;;5073497;28;20214;-78
2023/05/15 04:29:12;;;;;;;17.20;12.90;;;9.40;99.90;;;;;;5075267;28;20234;-77
2023/05/15 04:31:41;;;;;;;14.70;12.60;;;9.40;99.90;;;;;;5076614;28;20265;-78
2023/05/15 04:34:09;;;;;;;18.03;13.30;;;9.30;99.90;;;;;;5073957;28;20277;-75
2023/05/15 04:36:37;;;;;;;18.67;14.03;;;9.40;99.90;;;;;;5073608;28;20207;-74
2023/05/15 04:39:08;;;;;;;17.70;13.17;;;9.40;99.90;;;;;;5074470;28;20185;-74
2023/05/15 04:41:37;;;;;;;18.20;13.00;;;9.40;99.90;;;;;;5073275;28;20684;-75
2023/05/15 04:44:06;;;;;;;18.43;13.23;;;9.40;99.90;;;;;;5073573;28;20203;-77
2023/05/15 04:46:36;;;;;;;16.13;12.77;;;9.40;99.90;;;;;;5073360;28;20570;-77
2023/05/15 04:49:06;;;;;;;17.30;14.07;;;9.40;99.90;;;;;;5074651;28;20215;-73
2023/05/15 04:51:34;;;;;;;18.50;14.00;;;9.40;99.90;;;;;;5075561;28;20257;-78
2023/05/15 04:54:02;;;;;;;16.60;13.23;;;9.40;99.90;;;;;;5078484;28;20646;-76
2023/05/15 04:56:32;;;;;;;17.20;14.00;;;9.40;99.90;;;;;;5082678;28;20727;-76
2023/05/15 04:59:00;;;;;;;18.00;13.83;;;9.40;99.90;;;;;;5074172;28;20207;-78
2023/05/15 05:01:29;;;;;;;19.53;14.67;;;9.40;99.90;;;;;;5077282;28;20246;-76
2023/05/15 05:03:57;;;;;;;19.77;14.77;;;9.40;99.90;;;;;;5073330;28;20207;-74
2023/05/15 05:06:27;;;;;;;18.60;13.83;;;9.40;99.90;;;;;;5073377;28;20725;-76
2023/05/15 05:08:57;;;;;;;18.23;14.50;;;9.40;99.90;;;;;;5073959;28;20215;-77
2023/05/15 05:11:26;;;;;;;19.20;14.50;;;9.40;99.90;;;;;;5083935;28;20219;-76
2023/05/15 05:13:54;;;;;;;17.53;13.57;;;9.50;99.90;;;;;;5090350;28;20266;-78
2023/05/15 05:16:24;;;;;;;21.57;14.80;;;9.40;99.90;;;;;;5093189;28;20203;-76
2023/05/15 05:18:52;;;;;;;20.30;14.00;;;9.50;99.90;;;;;;5088965;28;20206;-74
2023/05/15 05:21:20;;;;;;;18.40;14.33;;;9.50;99.90;;;;;;5092735;28;20726;-76
2023/05/15 05:23:50;;;;;;;20.30;15.00;;;9.50;99.90;;;;;;5093672;28;20230;-76
2023/05/15 05:26:18;;;;;;;17.50;13.97;;;9.60;99.90;;;;;;5090648;28;20207;-76
2023/05/15 05:28:47;;;;;;;17.27;14.10;;;9.50;99.90;;;;;;5092533;28;20573;-79
2023/05/15 05:31:15;;;;;;;17.27;14.07;;;9.50;99.90;;;;;;5092233;28;20203;-74
2023/05/15 05:33:43;;;;;;;16.67;13.63;;;9.50;99.90;;;;;;5092505;28;20209;-76
2023/05/15 05:36:11;;;;;;;16.40;13.63;;;9.50;99.90;;;;;;5089772;28;20215;-76
2023/05/15 05:38:39;;;;;;;18.27;14.03;;;9.50;99.90;;;;;;5092058;28;20661;-77
2023/05/15 05:41:09;;;;;;;18.10;13.83;;;9.50;99.90;;;;;;5094056;28;20207;-79
2023/05/15 05:43:37;;;;;;;19.20;14.47;;;9.50;99.90;;;;;;5091131;28;20307;-74
2023/05/15 05:46:06;;;;;;;18.93;14.90;;;9.60;99.90;;;;;;5097261;28;20207;-77
2023/05/15 05:48:34;;;;;;;18.10;14.17;;;9.50;99.90;;;;;;5099320;28;20241;-76
2023/05/15 05:51:02;;;;;;;19.20;15.37;;;9.60;99.90;;;;;;5098120;28;20289;-76
2023/05/15 05:53:30;;;;;;;18.43;14.47;;;9.50;99.90;;;;;;5093361;28;20294;-79
2023/05/15 05:55:58;;;;;;;18.63;15.07;;;9.50;99.90;;;;;;5089909;28;20199;-76
2023/05/15 05:58:28;;;;;;;19.87;16.13;;;9.60;99.90;;;;;;5096439;28;20569;-76
2023/05/15 06:00:56;;;;;;;20.90;16.40;;;9.60;99.90;;;;;;5095790;28;20217;-79
2023/05/15 06:03:24;;;;;;;20.97;16.07;;;9.60;99.90;;;;;;5086540;28;20673;-78
2023/05/15 06:05:53;;;;;;;19.53;15.73;;;9.60;99.90;;;;;;5076056;28;20270;-78
2023/05/15 06:08:21;;;;;;;20.87;15.47;;;9.60;99.90;;;;;;5076196;28;20317;-74
2023/05/15 06:10:49;;;;;;;19.90;16.10;;;9.60;99.90;;;;;;5075527;28;20211;-78
2023/05/15 06:13:17;;;;;;;24.60;16.93;;;9.70;99.90;;;;;;5092081;28;20199;-78
2023/05/15 06:15:47;;;;;;;20.53;16.10;;;9.70;99.90;;;;;;5096092;28;20214;-78
2023/05/15 06:18:15;;;;;;;20.60;16.47;;;9.70;99.90;;;;;;5083571;28;20642;-78
2023/05/15 06:20:43;;;;;;;21.07;15.67;;;9.80;99.90;;;;;;5075666;28;20217;-78
2023/05/15 06:23:11;;;;;;;23.20;17.23;;;9.80;99.90;;;;;;5075074;28;20208;-74
2023/05/15 06:25:39;;;;;;;19.33;16.37;;;9.90;99.90;;;;;;5078439;28;20230;-76
2023/05/15 06:28:08;;;;;;;45.80;34.73;;;9.80;99.90;;;;;;5095731;28;20550;-74
2023/05/15 06:30:36;;;;;;;32.53;25.23;;;9.80;99.90;;;;;;5096136;28;20211;-75
2023/05/15 06:33:05;;;;;;;42.80;30.07;;;9.80;99.90;;;;;;5095393;28;20688;-76
2023/05/15 06:35:34;;;;;;;24.43;18.50;;;9.90;99.90;;;;;;5094966;28;20229;-78
2023/05/15 06:38:02;;;;;;;76.37;53.23;;;9.90;99.90;;;;;;5096249;28;20207;-77
2023/05/15 06:40:31;;;;;;;26.43;21.03;;;9.90;99.90;;;;;;5096044;28;20252;-74
2023/05/15 06:42:59;;;;;;;30.27;22.73;;;9.90;99.90;;;;;;5092356;28;20681;-78
2023/05/15 06:45:27;;;;;;;22.20;17.63;;;9.90;99.90;;;;;;5075628;28;20204;-79
2023/05/15 06:47:55;;;;;;;21.43;17.60;;;10.00;99.90;;;;;;5076059;28;20210;-77
2023/05/15 06:50:29;;;;;;;29.37;23.17;;;10.00;99.90;;;;;;5075555;28;20593;-77
2023/05/15 06:52:59;;;;;;;27.63;21.63;;;10.10;99.90;;;;;;5076342;28;20208;-77
2023/05/15 06:55:27;;;;;;;23.43;18.90;;;10.10;99.90;;;;;;5075733;28;20235;-75
2023/05/15 06:57:55;;;;;;;63.00;47.63;;;10.20;99.90;;;;;;5075281;28;20260;-78
2023/05/15 07:00:23;;;;;;;22.70;19.00;;;10.30;99.90;;;;;;5075761;28;20267;-76
2023/05/15 07:02:51;;;;;;;21.77;18.00;;;10.30;99.90;;;;;;5075888;28;20207;-76
2023/05/15 07:05:20;;;;;;;20.47;17.87;;;10.30;99.90;;;;;;5075938;28;20239;-76
2023/05/15 07:07:50;;;;;;;21.27;17.37;;;10.40;99.90;;;;;;5077540;28;20254;-76
2023/05/15 07:10:18;;;;;;;19.77;17.17;;;10.50;99.90;;;;;;5078329;28;20219;-76
2023/05/15 07:12:46;;;;;;;19.40;16.83;;;10.50;99.90;;;;;;5095229;28;20296;-77
2023/05/15 07:15:16;;;;;;;19.77;16.40;;;10.50;99.90;;;;;;5080722;28;20207;-75
2023/05/15 07:17:45;;;;;;;18.13;15.77;;;10.50;99.90;;;;;;5074043;28;20670;-77
2023/05/15 07:20:13;;;;;;;17.47;15.30;;;10.50;99.90;;;;;;5074438;28;20207;-76
2023/05/15 07:22:41;;;;;;;18.90;15.63;;;10.50;99.90;;;;;;5084685;28;20206;-78
2023/05/15 07:25:24;;;;;;;17.53;15.10;;;10.50;99.90;;;;;;5088889;28;20199;-77
2023/05/15 07:27:53;;;;;;;19.67;15.93;;;10.60;99.90;;;;;;5076801;28;20290;-78
2023/05/15 07:30:21;;;;;;;17.20;15.20;;;10.70;99.90;;;;;;5074449;28;20233;-77
2023/05/15 07:32:50;;;;;;;16.93;14.67;;;10.80;99.90;;;;;;5073578;28;20238;-75
2023/05/15 07:35:18;;;;;;;16.97;15.10;;;10.70;99.90;;;;;;5073856;28;20208;-77
2023/05/15 07:37:46;;;;;;;17.43;15.20;;;10.90;99.90;;;;;;5081159;28;20207;-77
2023/05/15 07:40:15;;;;;;;19.17;14.97;;;10.80;99.90;;;;;;5094050;28;20202;-77
2023/05/15 07:42:45;;;;;;;16.90;15.10;;;10.90;99.90;;;;;;5081542;28;20254;-76
2023/05/15 07:45:14;;;;;;;15.47;13.87;;;11.00;99.90;;;;;;5074280;28;20679;-75
2023/05/15 07:47:46;;;;;;;16.17;14.40;;;11.10;99.90;;;;;;5073870;28;20265;-77
2023/05/15 07:50:14;;;;;;;16.23;14.00;;;11.10;99.90;;;;;;5073843;28;20223;-75
2023/05/15 07:52:43;;;;;;;15.83;14.10;;;11.20;99.90;;;;;;5085422;28;20214;-79
2023/05/15 07:55:11;;;;;;;15.10;13.50;;;11.30;99.90;;;;;;5093907;28;20234;-76
2023/05/15 07:57:40;;;;;;;15.47;13.87;;;11.30;99.90;;;;;;5093665;28;20677;-77
2023/05/15 08:00:12;;;;;;;15.03;13.50;;;11.50;99.90;;;;;;5088082;28;20252;-77
2023/05/15 08:02:41;;;;;;;14.70;13.23;;;11.60;99.90;;;;;;5089245;28;20704;-76
2023/05/15 08:05:09;;;;;;;15.83;13.47;;;11.70;99.90;;;;;;5090344;28;20206;-75
2023/05/15 08:07:38;;;;;;;13.17;11.87;;;11.80;99.90;;;;;;5093271;28;20203;-78
2023/05/15 08:10:07;;;;;;;12.70;11.40;;;11.80;99.90;;;;;;5090580;28;20294;-77
2023/05/15 08:12:35;;;;;;;12.53;11.27;;;11.80;99.90;;;;;;5091096;28;20664;-79
2023/05/15 08:15:04;;;;;;;12.93;11.73;;;11.80;99.90;;;;;;5089398;28;20244;-77
2023/05/15 08:17:33;;;;;;;12.67;11.27;;;11.80;99.90;;;;;;5093312;28;20242;-77
2023/05/15 08:20:03;;;;;;;12.27;11.07;;;11.90;99.90;;;;;;5078298;28;20199;-74
2023/05/15 08:22:31;;;;;;;12.77;10.13;;;12.00;99.90;;;;;;5086465;28;20210;-75
2023/05/15 08:25:02;;;;;;;10.80;9.70;;;12.20;99.90;;;;;;5088465;28;20205;-75
2023/05/15 08:27:30;;;;;;;9.80;8.90;;;12.60;99.90;;;;;;5075104;28;20207;-77
2023/05/15 08:29:59;;;;;;;9.50;8.57;;;13.00;99.90;;;;;;5083391;28;20225;-78
2023/05/15 08:32:27;;;;;;;9.33;8.43;;;13.30;99.90;;;;;;5089564;28;20313;-75
2023/05/15 08:34:58;;;;;;;9.90;8.90;;;13.40;99.90;;;;;;5092017;28;20267;-77
2023/05/15 08:37:26;;;;;;;8.83;7.93;;;13.40;99.90;;;;;;5092071;28;20291;-78
2023/05/15 08:39:54;;;;;;;9.07;8.17;;;13.50;99.90;;;;;;5092464;28;20210;-78
2023/05/15 08:42:27;;;;;;;8.43;7.63;;;13.40;99.90;;;;;;5091350;28;20212;-78
2023/05/15 08:44:55;;;;;;;8.23;7.23;;;13.50;99.90;;;;;;5091817;28;20302;-77
2023/05/15 08:47:24;;;;;;;8.60;7.80;;;13.70;99.90;;;;;;5092227;28;20548;-75
2023/05/15 08:50:00;;;;;;;8.43;7.43;;;13.90;99.90;;;;;;5086710;28;20278;-79
2023/05/15 08:52:29;;;;;;;8.10;7.30;;;14.00;99.90;;;;;;5071608;28;20274;-78
2023/05/15 08:54:57;;;;;;;7.00;6.30;;;14.10;99.90;;;;;;5072055;28;20208;-77
2023/05/15 08:57:26;;;;;;;7.20;6.50;;;14.40;99.90;;;;;;5086213;28;20630;-76
2023/05/15 08:59:56;;;;;;;6.87;6.13;;;14.80;99.90;;;;;;5079256;28;20760;-75
2023/05/15 09:02:25;;;;;;;6.33;5.73;;;15.30;99.90;;;;;;5091647;28;20260;-76
2023/05/15 09:04:53;;;;;;;6.20;5.60;;;15.80;99.90;;;;;;5092387;28;20211;-76
2023/05/15 09:07:23;;;;;;;6.13;5.40;;;16.10;99.90;;;;;;5092054;28;20210;-76
2023/05/15 09:09:53;;;;;;;5.30;4.80;;;16.20;99.90;;;;;;5092228;28;20321;-75
2023/05/15 09:12:23;;;;;;;5.73;5.23;;;16.60;99.90;;;;;;5049068;28;1213744;-76
2023/05/15 09:14:51;;;;;;;5.60;5.00;;;17.10;99.90;;;;;;5089226;28;20203;-76
2023/05/15 09:17:20;;;;;;;5.60;5.00;;;17.60;99.90;;;;;;5073769;28;20313;-80
2023/05/15 09:19:48;;;;;;;5.87;5.03;;;17.90;99.90;;;;;;5079978;28;20207;-76
2023/05/15 09:22:22;;;;;;;5.43;4.70;;;18.60;99.90;;;;;;5084984;28;20222;-77
2023/05/15 09:24:54;;;;;;;6.53;5.40;;;19.50;99.90;;;;;;5076001;28;20245;-79
2023/05/15 09:27:22;;;;;;;7.57;5.33;;;20.90;99.90;;;;;;5084393;28;20635;-81
2023/05/15 09:29:55;;;;;;;4.72;4.13;;;21.80;99.90;;;;;;5092962;28;20211;-80
2023/05/15 09:32:27;;;;;;;36.92;25.40;;;23.30;99.90;;;;;;5075617;28;20499;-78
2023/05/15 09:34:56;;;;;;;7.88;5.45;;;23.20;99.90;;;;;;5071375;28;20207;-78
2023/05/15 09:37:31;;;;;;;4.00;3.70;;;23.70;99.90;;;;;;5083106;28;20206;-79
2023/05/15 09:40:09;;;;;;;3.60;3.30;;;23.20;99.90;;;;;;5090729;28;20255;-81
2023/05/15 09:42:38;;;;;;;3.95;3.55;;;23.10;99.90;;;;;;5095932;28;20207;-80
2023/05/15 09:45:16;;;;;;;4.55;4.13;;;22.80;99.90;;;;;;5093385;28;20234;-79
2023/05/15 09:47:45;;;;;;;5.15;3.47;;;22.10;99.90;;;;;;5105124;28;20869;-78
2023/05/15 09:50:20;;;;;;;4.22;3.13;;;22.90;99.90;;;;;;5097994;28;20680;-78
2023/05/15 09:52:49;;;;;;;3.95;3.20;;;23.90;99.90;;;;;;5074002;28;20290;-79
2023/05/15 09:55:21;;;;;;;4.57;3.13;;;24.00;99.90;;;;;;5087755;28;20665;-81
2023/05/15 09:58:07;;;;;;;3.60;2.90;;;24.20;99.90;;;;;;5074940;28;20208;-78
2023/05/15 10:00:35;;;;;;;5.30;2.83;;;24.40;99.90;;;;;;5079114;28;20246;-77
2023/05/15 10:03:17;;;;;;;3.65;3.05;;;25.00;99.90;;;;;;5073830;28;20607;-80
2023/05/15 10:05:45;;;;;;;3.80;3.40;;;24.60;99.70;;;;;;5074547;28;20213;-80
2023/05/15 10:08:14;;;;;;;3.40;3.10;;;23.90;99.90;;;;;;5085655;28;20298;-81
2023/05/15 10:10:45;;;;;;;3.78;3.40;;;25.10;99.90;;;;;;5073232;28;20204;-81
2023/05/15 10:13:13;;;;;;;3.70;3.40;;;23.80;97.80;;;;;;5072310;28;20269;-81
2023/05/15 10:15:42;;;;;;;5.60;3.58;;;23.10;99.90;;;;;;5072624;28;20215;-79
2023/05/15 10:18:11;;;;;;;4.75;3.60;;;23.20;99.90;;;;;;5072644;28;20205;-79
2023/05/15 10:20:39;;;;;;;4.13;3.10;;;22.30;99.90;;;;;;5072565;28;20259;-79
2023/05/15 10:23:10;;;;;;;4.30;3.20;;;22.10;99.90;;;;;;5086484;28;20212;-79
2023/05/15 10:25:50;;;;;;;4.20;3.80;;;20.70;99.90;;;;;;5073262;28;20612;-76
2023/05/15 10:28:19;;;;;;;4.28;3.42;;;20.40;99.90;;;;;;5087744;28;20704;-77
2023/05/15 10:30:49;;;;;;;4.20;3.83;;;21.10;99.90;;;;;;5094566;28;20276;-77
2023/05/15 10:33:19;;;;;;;4.27;3.87;;;21.10;99.90;;;;;;5093258;28;20207;-75
2023/05/15 10:35:50;;;;;;;7.03;4.67;;;19.60;99.90;;;;;;5077785;28;20211;-75
2023/05/15 10:38:23;;;;;;;4.90;4.40;;;18.90;99.90;;;;;;5076611;28;20264;-76
2023/05/15 10:40:57;;;;;;;5.30;4.73;;;18.50;99.90;;;;;;5076057;28;20345;-76
2023/05/15 10:43:44;;;;;;;5.30;4.80;;;18.20;99.90;;;;;;5092271;28;20649;-76
2023/05/15 10:46:13;;;;;;;5.50;4.90;;;17.50;99.90;;;;;;5086040;28;20693;-77
2023/05/15 10:48:42;;;;;;;8.43;4.80;;;17.00;99.90;;;;;;5075043;28;20599;-76
2023/05/15 10:51:15;;;;;;;5.77;4.87;;;16.50;99.90;;;;;;5075493;28;20208;-75
2023/05/15 10:53:44;;;;;;;7.40;4.80;;;16.60;99.90;;;;;;5075474;28;20202;-77
2023/05/15 10:56:15;;;;;;;5.00;4.43;;;16.30;99.90;;;;;;5088144;28;20213;-75
2023/05/15 10:58:48;;;;;;;5.67;4.60;;;16.60;99.90;;;;;;5096707;28;20741;-76
2023/05/15 11:01:30;;;;;;;6.73;4.63;;;16.90;99.90;;;;;;5081659;28;20634;-78
2023/05/15 11:04:10;;;;;;;5.57;4.10;;;17.10;99.90;;;;;;5095328;28;20689;-76
2023/05/15 11:06:39;;;;;;;4.50;4.10;;;17.10;99.90;;;;;;5087627;28;20261;-75
2023/05/15 11:09:33;;;;;;;4.50;4.10;;;17.00;99.90;;;;;;5079232;28;20230;-76
2023/05/15 11:12:04;;;;;;;5.00;4.50;;;16.60;99.90;;;;;;5094428;28;20214;-76
2023/05/15 11:14:33;;;;;;;4.90;4.37;;;16.30;99.90;;;;;;5094791;28;20202;-76
2023/05/15 11:17:04;;;;;;;5.90;4.70;;;16.30;99.90;;;;;;5086935;28;20646;-76
2023/05/15 11:19:37;;;;;;;5.77;4.70;;;16.30;99.90;;;;;;5088473;28;20217;-76
2023/05/15 11:22:19;;;;;;;6.20;4.67;;;16.20;99.90;;;;;;5094903;28;20318;-80
2023/05/15 11:24:52;;;;;;;6.80;5.40;;;16.10;99.90;;;;;;5088326;28;20219;-79
2023/05/15 11:27:23;;;;;;;6.30;5.30;;;15.90;99.90;;;;;;5095224;28;20211;-78
2023/05/15 11:30:11;;;;;;;5.97;5.37;;;15.90;99.90;;;;;;5096033;28;20213;-77
2023/05/15 11:32:41;;;;;;;6.30;5.70;;;15.70;99.90;;;;;;5094224;28;20202;-77
2023/05/15 11:35:10;;;;;;;6.57;5.70;;;15.90;99.90;;;;;;5083568;28;20650;-78
2023/05/15 11:37:42;;;;;;;7.13;5.70;;;16.60;99.90;;;;;;5094274;28;20206;-78
2023/05/15 11:40:14;;;;;;;5.63;4.87;;;17.50;99.90;;;;;;5094779;28;20210;-74
2023/05/15 11:43:02;;;;;;;7.23;4.50;;;18.30;99.90;;;;;;5095007;28;20293;-76
2023/05/15 11:45:32;;;;;;;5.33;4.83;;;18.40;99.90;;;;;;5074128;28;20207;-76
2023/05/15 11:48:05;;;;;;;5.43;4.70;;;17.90;99.90;;;;;;5073652;28;20262;-75
2023/05/15 11:50:35;;;;;;;4.80;4.30;;;18.10;99.90;;;;;;5075471;28;20210;-77
2023/05/15 11:53:05;;;;;;;4.90;4.40;;;18.50;99.90;;;;;;5081666;28;20227;-75
2023/05/15 11:55:34;;;;;;;5.27;4.20;;;19.20;99.90;;;;;;5073840;28;20211;-76
2023/05/15 11:58:05;;;;;;;4.83;4.10;;;19.80;99.90;;;;;;5073819;28;20661;-77
2023/05/15 12:00:33;;;;;;;5.10;4.20;;;20.20;99.90;;;;;;5093770;28;20288;-75
2023/05/15 12:03:03;;;;;;;4.73;4.17;;;20.10;99.90;;;;;;5093897;28;20229;-78
2023/05/15 12:05:32;;;;;;;4.63;3.80;;;20.10;99.90;;;;;;5094307;28;20223;-74
2023/05/15 12:08:02;;;;;;;3.87;3.10;;;20.20;99.90;;;;;;5078583;28;20215;-75
2023/05/15 12:10:31;;;;;;;5.67;4.03;;;20.60;99.90;;;;;;5086502;28;20215;-76
2023/05/15 12:12:59;;;;;;;4.10;3.57;;;20.30;99.90;;;;;;5093978;28;20231;-75
2023/05/15 12:15:29;;;;;;;4.10;3.63;;;19.70;99.90;;;;;;5097370;28;20211;-74
2023/05/15 12:17:57;;;;;;;5.57;3.90;;;19.70;99.90;;;;;;5084209;28;20218;-75
2023/05/15 12:20:25;;;;;;;4.83;3.70;;;18.60;99.90;;;;;;5074220;28;20662;-76
2023/05/15 12:22:53;;;;;;;4.07;3.70;;;18.60;99.90;;;;;;5073245;28;20231;-77
2023/05/15 12:25:22;;;;;;;4.13;3.73;;;18.60;99.90;;;;;;5079668;28;20210;-77
2023/05/15 12:27:50;;;;;;;6.13;3.67;;;18.20;99.90;;;;;;5090808;28;20207;-75
2023/05/15 12:30:19;;;;;;;5.27;3.50;;;17.20;99.90;;;;;;5087201;28;20218;-77
2023/05/15 12:32:48;;;;;;;5.00;3.60;;;16.40;99.90;;;;;;5086886;28;20223;-76
2023/05/15 12:35:17;;;;;;;5.67;3.40;;;15.70;99.90;;;;;;5093494;28;20297;-77
2023/05/15 12:37:45;;;;;;;15.57;3.80;;;14.90;99.90;;;;;;5093186;28;20226;-75
2023/05/15 12:40:14;;;;;;;8.53;3.87;;;14.50;99.90;;;;;;5093743;28;20203;-78
2023/05/15 12:42:43;;;;;;;12.43;4.20;;;13.90;99.90;;;;;;5090219;28;20214;-81
2023/05/15 12:45:16;;;;;;;9.23;3.73;;;13.30;99.90;;;;;;5092290;28;20225;-78
2023/05/15 12:47:46;;;;;;;6.53;3.50;;;13.00;99.90;;;;;;5089551;28;20211;-78
2023/05/15 12:50:17;;;;;;;5.80;3.67;;;12.90;99.90;;;;;;5073159;28;20219;-77
2023/05/15 12:52:52;;;;;;;7.70;3.47;;;12.80;99.90;;;;;;5089525;28;20224;-77
2023/05/15 12:55:24;;;;;;;5.83;3.20;;;12.80;99.90;;;;;;5092520;28;20206;-74
2023/05/15 12:57:52;;;;;;;5.20;3.53;;;12.70;99.90;;;;;;5082619;28;20203;-75